SAYO2: North Fork Red, OK

Data processed at Wed May 22 2019 23:50


All information presented herein is the property of the government of the United States of America and may be revised or deleted at any time without prior notice.
Dissemination of this information without the expressed written consent of the Public Affairs Office, Tulsa District U.S. Army Corps of Engineers is strictly prohibited.
These data are gathered electronically and, as presented, have not undergone any form of quality control. These data are not guaranteed to be valid or correct.
Go to home page.
Go to station list.
Go to home page.

Upstream stations:

Downstream station:
Previous Day
Next Day
Current Day
    
SHEF ID:       SAYO2     North Fork Red River near Sayre,
STATION TYPE:  
Regulating: Stage =     9.00, Flow =     5796

               PRECIP PRECIP(A)     STAGE  RIV-FLOW  BAT-LOAD
                   in        in        ft       cfs      volt
              Ccp-Rev   Ccp-Rev   Ccp-Rev   Ccp-Rev   Ccp-Rev
(US/Central)
05/22 00:00      0.00      0.00      6.71      1942     12.65
05/22 01:00      0.00      0.00      6.60      1821     12.65
05/22 02:00      0.00      0.00      6.44      1654     12.65
05/22 03:00      0.00      0.00      6.32      1535     12.57
05/22 04:00      0.00      0.00      6.19      1413     12.57
05/22 05:00      0.00      0.00      6.10      1333     12.57
05/22 06:00      0.00      0.00      5.93      1189     12.57
05/22 07:00      0.00      0.00      5.75      1048     12.49
05/22 08:00      0.00      0.00      5.60       939     12.57
05/22 09:00      0.00      0.00      5.44       832     12.97
05/22 10:00      0.00      0.00      5.28       733     13.37
05/22 11:00      0.00      0.00      5.24       709     13.44
05/22 12:00      0.00      0.00      5.15       658     13.37
05/22 13:00      0.00      0.00      5.04       599     13.53
05/22 14:00      0.00      0.00      4.99       574     13.60
05/22 15:00      0.00      0.00      4.88       520     13.60
05/22 16:00      0.00      0.00      4.81       487     13.21
05/22 17:00      0.00      0.00      4.72       448     13.05
05/22 18:00      0.00      0.00      4.68       431     13.05
05/22 19:00      0.00      0.00      4.58       390     12.97
05/22 20:00      0.00      0.00      4.50       360     12.73
05/22 21:00      0.00      0.00      4.37       313     12.65
05/22 22:00      0.00      0.00      4.29       287     12.65
05/22 23:00      0.00      0.00      4.25       274     12.65